TimeEST,TemperatureF,Dew PointF,Humidity,Sea Level PressureIn,VisibilityMPH,Wind Direction,Wind SpeedMPH,Gust SpeedMPH,PrecipitationIn,Events,Conditions,WindDirDegrees,DateUTC
12:54 AM,27.0,7.0,43,30.14,10.0,NNW,8.1,-,N/A,,Clear,340,2012-02-05 05:54:00
1:54 AM,26.1,8.1,47,30.14,10.0,NNW,9.2,-,N/A,,Clear,340,2012-02-05 06:54:00
2:54 AM,24.1,8.1,51,30.14,10.0,NNW,5.8,-,N/A,,Clear,340,2012-02-05 07:54:00
3:54 AM,23.0,8.1,53,30.14,10.0,NNW,6.9,-,N/A,,Clear,340,2012-02-05 08:54:00
4:54 AM,23.0,8.1,53,30.15,10.0,NNW,5.8,-,N/A,,Clear,340,2012-02-05 09:54:00
5:54 AM,21.9,7.0,53,30.15,10.0,North,9.2,-,N/A,,Partly Cloudy,350,2012-02-05 10:54:00
6:54 AM,21.9,8.1,55,30.17,10.0,NNW,9.2,-,N/A,,Scattered Clouds,340,2012-02-05 11:54:00
7:54 AM,23.0,8.1,53,30.17,10.0,NNW,8.1,-,N/A,,Scattered Clouds,340,2012-02-05 12:54:00
8:54 AM,26.1,9.0,49,30.17,10.0,NNW,5.8,-,N/A,,Scattered Clouds,340,2012-02-05 13:54:00
9:54 AM,28.0,12.0,51,30.17,10.0,Variable,4.6,-,N/A,,Scattered Clouds,0,2012-02-05 14:54:00
10:54 AM,28.9,12.0,49,30.16,10.0,Calm,Calm,-,N/A,,Scattered Clouds,0,2012-02-05 15:54:00
11:54 AM,28.9,12.0,49,30.14,10.0,SE,4.6,-,N/A,,Scattered Clouds,130,2012-02-05 16:54:00
12:54 PM,30.0,14.0,51,30.12,10.0,SE,5.8,-,N/A,,Scattered Clouds,140,2012-02-05 17:54:00
1:54 PM,30.9,15.1,52,30.09,10.0,SE,9.2,-,N/A,,Partly Cloudy,130,2012-02-05 18:54:00
2:54 PM,34.0,12.9,42,30.09,10.0,South,6.9,-,N/A,,Partly Cloudy,170,2012-02-05 19:54:00
3:54 PM,35.1,7.0,31,30.08,10.0,WSW,5.8,-,N/A,,Clear,240,2012-02-05 20:54:00
4:54 PM,35.1,7.0,31,30.07,10.0,West,4.6,-,N/A,,Clear,260,2012-02-05 21:54:00
5:54 PM,34.0,9.0,35,30.08,10.0,SW,6.9,-,N/A,,Clear,220,2012-02-05 22:54:00
6:54 PM,35.1,7.0,31,30.09,10.0,West,10.4,-,N/A,,Clear,280,2012-02-05 23:54:00
7:54 PM,34.0,7.0,32,30.10,10.0,West,6.9,-,N/A,,Clear,280,2012-02-06 00:54:00
8:54 PM,33.1,9.0,37,30.10,10.0,Calm,Calm,-,N/A,,Clear,0,2012-02-06 01:54:00
9:54 PM,32.0,10.0,40,30.10,10.0,WNW,8.1,-,N/A,,Clear,290,2012-02-06 02:54:00
10:54 PM,30.9,10.9,43,30.10,10.0,West,9.2,-,N/A,,Clear,280,2012-02-06 03:54:00
11:54 PM,30.9,12.0,46,30.09,10.0,West,6.9,-,N/A,,Partly Cloudy,280,2012-02-06 04:54:00